createdAt,value
2017-08-20T00:00:24.829Z,1016.17
2017-08-20T00:01:24.824Z,1016.13
2017-08-20T00:02:24.818Z,1016.12
2017-08-20T00:03:24.812Z,1016.13
2017-08-20T00:04:24.797Z,1016.13
2017-08-20T00:05:24.791Z,1016.12
2017-08-20T00:06:24.784Z,1016.08
2017-08-20T00:07:24.775Z,1016.10
2017-08-20T00:08:24.765Z,1016.06
2017-08-20T00:09:24.760Z,1016.09
2017-08-20T00:10:24.752Z,1016.04
2017-08-20T00:11:24.748Z,1016.03
2017-08-20T00:12:24.743Z,1016.03
2017-08-20T00:13:24.735Z,1016.00
2017-08-20T00:14:24.730Z,1016.05
2017-08-20T00:15:24.721Z,1016.05
2017-08-20T00:16:24.716Z,1016.04
2017-08-20T00:17:24.706Z,1016.03
2017-08-20T00:18:24.700Z,1016.07
2017-08-20T00:19:24.696Z,1016.06
2017-08-20T00:20:24.679Z,1016.04
2017-08-20T00:21:24.674Z,1016.07
2017-08-20T00:22:24.667Z,1016.06
2017-08-20T00:23:24.660Z,1016.04
2017-08-20T00:24:24.650Z,1016.07
2017-08-20T00:25:24.645Z,1016.08
2017-08-20T00:26:24.636Z,1016.12
2017-08-20T00:27:24.631Z,1016.08
2017-08-20T00:28:24.628Z,1016.08
2017-08-20T00:29:24.619Z,1016.07
2017-08-20T00:30:24.614Z,1016.12
2017-08-20T00:31:24.605Z,1016.11
2017-08-20T00:32:24.598Z,1016.07
2017-08-20T00:33:24.589Z,1016.13
2017-08-20T00:34:24.585Z,1016.13
2017-08-20T00:35:24.574Z,1016.13
2017-08-20T00:36:24.563Z,1016.09
2017-08-20T00:37:24.558Z,1016.16
2017-08-20T00:38:24.550Z,1016.13
2017-08-20T00:39:24.544Z,1016.14
2017-08-20T00:40:24.537Z,1016.11
2017-08-20T00:41:24.527Z,1016.10
2017-08-20T00:42:24.521Z,1016.13
2017-08-20T00:43:24.514Z,1016.11
2017-08-20T00:44:24.510Z,1016.06
2017-08-20T00:45:24.503Z,1016.07
2017-08-20T00:46:24.495Z,1016.03
2017-08-20T00:47:24.489Z,1016.06
2017-08-20T00:48:24.481Z,1016.09
2017-08-20T00:49:24.475Z,1016.14
2017-08-20T00:50:24.467Z,1016.06
2017-08-20T00:51:24.460Z,1016.07
2017-08-20T00:52:24.449Z,1016.07
2017-08-20T00:53:24.439Z,1016.09
2017-08-20T00:54:24.435Z,1016.09
2017-08-20T00:55:24.424Z,1016.10
2017-08-20T00:56:24.418Z,1016.08
2017-08-20T00:57:24.412Z,1016.04
2017-08-20T00:58:24.403Z,1016.13
2017-08-20T00:59:24.398Z,1016.08
2017-08-20T01:00:24.394Z,1016.13
2017-08-20T01:01:24.385Z,1016.03
2017-08-20T01:02:24.380Z,1016.04
2017-08-20T01:03:24.371Z,1016.06
2017-08-20T01:04:24.365Z,1016.06
2017-08-20T01:05:24.356Z,1016.08
2017-08-20T01:06:24.351Z,1016.10
2017-08-20T01:07:24.341Z,1016.06
2017-08-20T01:08:24.328Z,1016.07
2017-08-20T01:09:24.323Z,1016.05
2017-08-20T01:10:24.314Z,1016.08
2017-08-20T01:11:24.309Z,1016.07
2017-08-20T01:12:24.300Z,1016.09
2017-08-20T01:13:24.292Z,1016.08
2017-08-20T01:14:24.287Z,1016.09
2017-08-20T01:15:24.278Z,1016.04
2017-08-20T01:16:24.273Z,1016.03
2017-08-20T01:17:24.269Z,1016.06
2017-08-20T01:18:24.259Z,1016.08
2017-08-20T01:19:24.254Z,1016.11
2017-08-20T01:20:24.244Z,1016.13
2017-08-20T01:21:24.239Z,1016.14
2017-08-20T01:22:24.228Z,1016.20
2017-08-20T01:23:24.225Z,1016.26
2017-08-20T01:24:24.211Z,1016.26
2017-08-20T01:25:24.208Z,1016.25
2017-08-20T01:26:24.204Z,1016.25
2017-08-20T01:27:24.188Z,1016.27
2017-08-20T01:28:24.184Z,1016.29
2017-08-20T01:29:24.179Z,1016.23
2017-08-20T01:30:24.172Z,1016.29
2017-08-20T01:31:24.165Z,1016.27
2017-08-20T01:32:24.153Z,1016.33
2017-08-20T01:33:24.144Z,1016.31
2017-08-20T01:34:24.144Z,1016.33
2017-08-20T01:35:24.130Z,1016.30
2017-08-20T01:36:24.124Z,1016.29
2017-08-20T01:37:24.115Z,1016.32
2017-08-20T01:38:24.109Z,1016.30
2017-08-20T01:39:24.100Z,1016.33
2017-08-20T01:40:24.097Z,1016.36
2017-08-20T01:41:24.091Z,1016.37
2017-08-20T01:42:24.083Z,1016.46
2017-08-20T01:43:24.076Z,1016.43
2017-08-20T01:44:24.069Z,1016.41
2017-08-20T01:45:24.059Z,1016.41
2017-08-20T01:46:24.055Z,1016.41
2017-08-20T01:47:24.046Z,1016.47
2017-08-20T01:48:24.035Z,1016.42
2017-08-20T01:49:24.028Z,1016.47
2017-08-20T01:50:24.021Z,1016.44
2017-08-20T01:51:24.014Z,1016.42
2017-08-20T01:52:24.005Z,1016.45
2017-08-20T01:53:23.999Z,1016.44
2017-08-20T01:54:23.991Z,1016.44
2017-08-20T01:55:23.986Z,1016.48
2017-08-20T01:56:23.983Z,1016.49
2017-08-20T01:57:23.972Z,1016.46
2017-08-20T01:58:23.969Z,1016.39
2017-08-20T01:59:23.958Z,1016.46
2017-08-20T02:00:23.952Z,1016.38
2017-08-20T02:01:23.946Z,1016.39
2017-08-20T02:02:23.937Z,1016.44
2017-08-20T02:03:23.932Z,1016.41
2017-08-20T02:04:23.921Z,1016.41
2017-08-20T02:05:23.912Z,1016.41
2017-08-20T02:06:23.906Z,1016.44
2017-08-20T02:07:23.897Z,1016.41
2017-08-20T02:08:23.892Z,1016.43
2017-08-20T02:09:23.882Z,1016.42
2017-08-20T02:10:23.878Z,1016.46
2017-08-20T02:11:23.869Z,1016.48
2017-08-20T02:12:23.866Z,1016.50
2017-08-20T02:13:23.868Z,1016.47
2017-08-20T02:14:23.851Z,1016.51
2017-08-20T02:15:23.846Z,1016.58
2017-08-20T02:16:23.839Z,1016.55
2017-08-20T02:17:23.829Z,1016.55
2017-08-20T02:18:23.826Z,1016.50
2017-08-20T02:19:23.813Z,1016.48
2017-08-20T02:20:23.803Z,1016.53
2017-08-20T02:21:23.799Z,1016.51
2017-08-20T02:22:23.787Z,1016.55
2017-08-20T02:23:23.783Z,1016.50
2017-08-20T02:24:23.773Z,1016.55
2017-08-20T02:25:23.768Z,1016.58
2017-08-20T02:26:23.759Z,1016.63
2017-08-20T02:27:23.753Z,1016.66
2017-08-20T02:28:23.750Z,1016.64
2017-08-20T02:29:23.740Z,1016.62
2017-08-20T02:30:23.735Z,1016.63
2017-08-20T02:31:23.726Z,1016.57
2017-08-20T02:32:23.714Z,1016.58
2017-08-20T02:33:23.708Z,1016.56
2017-08-20T02:34:23.699Z,1016.59
2017-08-20T02:35:23.693Z,1016.53
2017-08-20T02:36:23.690Z,1016.49
2017-08-20T02:37:23.680Z,1016.51
2017-08-20T02:38:23.674Z,1016.53
2017-08-20T02:39:23.664Z,1016.46
2017-08-20T02:40:23.659Z,1016.50
2017-08-20T02:41:23.649Z,1016.51
2017-08-20T02:42:23.644Z,1016.53
2017-08-20T02:43:23.632Z,1016.50
2017-08-20T02:44:23.622Z,1016.53
2017-08-20T02:45:23.616Z,1016.51
2017-08-20T02:46:23.613Z,1016.52
2017-08-20T02:47:23.601Z,1016.55
2017-08-20T02:48:23.596Z,1016.53
2017-08-20T02:49:23.583Z,1016.55
2017-08-20T02:50:23.577Z,1016.55
2017-08-20T02:51:23.568Z,1016.58
2017-08-20T02:52:23.564Z,1016.56
2017-08-20T02:53:23.557Z,1016.54
2017-08-20T02:54:23.550Z,1016.56
2017-08-20T02:55:23.542Z,1016.55
2017-08-20T02:56:23.530Z,1016.56
2017-08-20T02:57:23.526Z,1016.61
2017-08-20T02:58:23.516Z,1016.61
2017-08-20T02:59:23.509Z,1016.59
2017-08-20T03:00:23.497Z,1016.57
2017-08-20T03:01:23.489Z,1016.54
2017-08-20T03:02:23.483Z,1016.64
2017-08-20T03:03:23.473Z,1016.60
2017-08-20T03:04:23.464Z,1016.60
2017-08-20T03:05:23.464Z,1016.58
2017-08-20T03:06:23.448Z,1016.63
2017-08-20T03:07:23.444Z,1016.63
2017-08-20T03:08:23.439Z,1016.67
2017-08-20T03:09:23.437Z,1016.67
2017-08-20T03:10:23.424Z,1016.67
2017-08-20T03:11:23.414Z,1016.69
2017-08-20T03:12:23.407Z,1016.67
2017-08-20T03:13:23.398Z,1016.65
2017-08-20T03:14:23.392Z,1016.65
2017-08-20T03:15:23.385Z,1016.64
2017-08-20T03:16:23.371Z,1016.66
2017-08-20T03:17:23.364Z,1016.66
2017-08-20T03:18:23.355Z,1016.66
2017-08-20T03:19:23.348Z,1016.63
2017-08-20T03:20:23.340Z,1016.68
2017-08-20T03:21:23.329Z,1016.68
2017-08-20T03:22:23.324Z,1016.68
2017-08-20T03:23:23.315Z,1016.72
2017-08-20T03:24:23.311Z,1016.73
2017-08-20T03:25:23.307Z,1016.74
2017-08-20T03:26:23.296Z,1016.82
2017-08-20T03:27:23.289Z,1016.78
2017-08-20T03:28:23.279Z,1016.79
2017-08-20T03:29:23.273Z,1016.76
2017-08-20T03:30:23.265Z,1016.79
2017-08-20T03:31:23.271Z,1016.84
2017-08-20T03:32:23.243Z,1016.82
2017-08-20T03:33:23.235Z,1016.77
2017-08-20T03:34:23.228Z,1016.74
2017-08-20T03:35:23.221Z,1016.74
2017-08-20T03:36:23.214Z,1016.79
2017-08-20T03:37:23.210Z,1016.76
2017-08-20T03:38:23.199Z,1016.76
2017-08-20T03:39:23.193Z,1016.76
2017-08-20T03:40:23.180Z,1016.71
2017-08-20T03:41:23.171Z,1016.75
2017-08-20T03:42:23.165Z,1016.81
2017-08-20T03:43:23.155Z,1016.83
2017-08-20T03:44:23.148Z,1016.85
2017-08-20T03:45:23.137Z,1016.92
2017-08-20T03:46:23.133Z,1016.96
2017-08-20T03:47:23.123Z,1016.96
2017-08-20T03:48:23.126Z,1016.95
2017-08-20T03:49:23.112Z,1016.97
2017-08-20T03:50:23.107Z,1016.96
2017-08-20T03:51:23.096Z,1016.98
2017-08-20T03:52:23.087Z,1017.01
2017-08-20T03:53:23.078Z,1016.94
2017-08-20T03:54:23.071Z,1016.99
2017-08-20T03:55:23.066Z,1016.97
2017-08-20T03:56:23.049Z,1016.99
2017-08-20T03:57:23.042Z,1016.98
2017-08-20T03:58:23.033Z,1016.96
2017-08-20T03:59:23.023Z,1016.98
2017-08-20T04:00:23.015Z,1016.99
2017-08-20T04:01:23.009Z,1017.05
2017-08-20T04:02:22.998Z,1017.01
2017-08-20T04:03:22.992Z,1017.05
2017-08-20T04:04:22.988Z,1017.02
2017-08-20T04:05:22.977Z,1017.06
2017-08-20T04:06:22.972Z,1017.04
2017-08-20T04:07:22.962Z,1017.09
2017-08-20T04:08:22.953Z,1017.08
2017-08-20T04:09:22.947Z,1017.12
2017-08-20T04:10:22.936Z,1017.13
2017-08-20T04:11:22.931Z,1017.07
2017-08-20T04:12:22.918Z,1017.08
2017-08-20T04:13:22.908Z,1017.05
2017-08-20T04:14:22.900Z,1017.09
2017-08-20T04:15:22.891Z,1017.05
2017-08-20T04:16:22.883Z,1017.07
2017-08-20T04:17:22.874Z,1017.01
2017-08-20T04:18:22.867Z,1017.04
2017-08-20T04:19:22.858Z,1017.03
2017-08-20T04:20:22.854Z,1017.08
2017-08-20T04:21:22.847Z,1017.02
2017-08-20T04:22:22.837Z,1017.07
2017-08-20T04:23:22.831Z,1017.09
2017-08-20T04:24:22.827Z,1017.08
2017-08-20T04:25:22.812Z,1017.03
2017-08-20T04:26:22.805Z,1017.04
2017-08-20T04:27:22.797Z,1017.08
2017-08-20T04:28:22.783Z,1017.07
2017-08-20T04:29:22.777Z,1017.14
2017-08-20T04:30:22.766Z,1017.09
2017-08-20T04:31:22.759Z,1017.13
2017-08-20T04:32:22.750Z,1017.06
2017-08-20T04:33:22.742Z,1017.09
2017-08-20T04:34:22.736Z,1017.11
2017-08-20T04:35:22.727Z,1017.12
2017-08-20T04:36:22.722Z,1017.13
2017-08-20T04:37:22.711Z,1017.12
2017-08-20T04:38:22.707Z,1017.09
2017-08-20T04:39:22.696Z,1017.12
2017-08-20T04:40:22.684Z,1017.11
2017-08-20T04:41:22.675Z,1017.16
2017-08-20T04:42:22.670Z,1017.17
2017-08-20T04:43:22.658Z,1017.19
2017-08-20T04:44:22.654Z,1017.18
2017-08-20T04:45:22.649Z,1017.19
2017-08-20T04:46:22.641Z,1017.20
2017-08-20T04:47:22.633Z,1017.17
2017-08-20T04:48:22.621Z,1017.20
2017-08-20T04:49:22.615Z,1017.23
2017-08-20T04:50:22.605Z,1017.29
2017-08-20T04:51:22.598Z,1017.27
2017-08-20T04:52:22.585Z,1017.30
2017-08-20T04:53:22.575Z,1017.28
2017-08-20T04:54:22.570Z,1017.29
2017-08-20T04:55:22.563Z,1017.30
2017-08-20T04:56:22.551Z,1017.24
2017-08-20T04:57:22.545Z,1017.26
2017-08-20T04:58:22.535Z,1017.26
2017-08-20T04:59:22.527Z,1017.25
2017-08-20T05:00:22.523Z,1017.23
2017-08-20T05:01:22.514Z,1017.25
2017-08-20T05:02:22.509Z,1017.24
2017-08-20T05:03:22.498Z,1017.27
2017-08-20T05:04:22.492Z,1017.31
2017-08-20T05:05:22.482Z,1017.31
2017-08-20T05:06:22.476Z,1017.32
2017-08-20T05:07:22.466Z,1017.29
2017-08-20T05:08:22.455Z,1017.27
2017-08-20T05:09:22.447Z,1017.28
2017-08-20T05:10:22.438Z,1017.26
2017-08-20T05:11:22.431Z,1017.26
2017-08-20T05:12:22.423Z,1017.21
2017-08-20T05:13:22.413Z,1017.18
2017-08-20T05:14:22.408Z,1017.23
2017-08-20T05:15:22.397Z,1017.24
2017-08-20T05:16:22.394Z,1017.22
2017-08-20T05:17:22.388Z,1017.28
2017-08-20T05:18:22.379Z,1017.33
2017-08-20T05:19:22.373Z,1017.30
2017-08-20T05:20:22.367Z,1017.36
2017-08-20T05:21:22.358Z,1017.36
2017-08-20T05:22:22.347Z,1017.37
2017-08-20T05:23:22.343Z,1017.35
2017-08-20T05:24:22.330Z,1017.35
2017-08-20T05:25:22.321Z,1017.37
2017-08-20T05:26:22.314Z,1017.34
2017-08-20T05:27:22.304Z,1017.44
2017-08-20T05:28:22.297Z,1017.39
2017-08-20T05:29:22.290Z,1017.43
2017-08-20T05:30:22.282Z,1017.44
2017-08-20T05:31:22.276Z,1017.47
2017-08-20T05:32:22.272Z,1017.49
2017-08-20T05:33:22.263Z,1017.48
2017-08-20T05:34:22.256Z,1017.48
2017-08-20T05:35:22.248Z,1017.49
2017-08-20T05:36:22.242Z,1017.44
2017-08-20T05:37:22.231Z,1017.49
2017-08-20T05:38:22.233Z,1017.49
2017-08-20T05:39:22.220Z,1017.52
2017-08-20T05:40:22.203Z,1017.53
2017-08-20T05:41:22.200Z,1017.57
2017-08-20T05:42:22.190Z,1017.59
2017-08-20T05:43:22.185Z,1017.60
2017-08-20T05:44:22.180Z,1017.59
2017-08-20T05:45:22.171Z,1017.59
2017-08-20T05:46:22.166Z,1017.57
2017-08-20T05:47:22.156Z,1017.60
2017-08-20T05:48:22.145Z,1017.57
2017-08-20T05:49:22.139Z,1017.68
2017-08-20T05:50:22.130Z,1017.61
2017-08-20T05:51:22.124Z,1017.62
2017-08-20T05:52:22.115Z,1017.58
2017-08-20T05:53:22.110Z,1017.58
2017-08-20T05:54:22.101Z,1017.62
2017-08-20T05:55:22.095Z,1017.65
2017-08-20T05:56:22.092Z,1017.66
2017-08-20T05:57:22.083Z,1017.70
2017-08-20T05:58:22.078Z,1017.70
2017-08-20T05:59:22.068Z,1017.77
2017-08-20T06:00:22.061Z,1017.80
2017-08-20T06:01:22.056Z,1017.83
2017-08-20T06:02:22.052Z,1017.80
2017-08-20T06:03:22.043Z,1017.87
2017-08-20T06:04:22.029Z,1017.92
2017-08-20T06:05:22.024Z,1017.93
2017-08-20T06:06:22.016Z,1017.92
2017-08-20T06:07:22.007Z,1017.84
2017-08-20T06:08:22.002Z,1017.88
2017-08-20T06:09:21.994Z,1017.85
2017-08-20T06:10:21.993Z,1017.88
2017-08-20T06:11:21.980Z,1017.91
2017-08-20T06:12:21.976Z,1017.89
2017-08-20T06:13:21.972Z,1017.96
2017-08-20T06:14:21.964Z,1017.95
2017-08-20T06:15:21.960Z,1017.95
2017-08-20T06:16:21.952Z,1017.94
2017-08-20T06:17:21.942Z,1017.91
2017-08-20T06:18:21.939Z,1017.90
2017-08-20T06:19:21.930Z,1017.90
2017-08-20T06:20:21.916Z,1017.89
2017-08-20T06:21:21.914Z,1017.89
2017-08-20T06:22:21.905Z,1017.96
2017-08-20T06:23:21.899Z,1017.97
2017-08-20T06:24:21.889Z,1017.98
2017-08-20T06:25:21.885Z,1017.96
2017-08-20T06:26:21.876Z,1017.98
2017-08-20T06:27:21.872Z,1018.03
2017-08-20T06:28:21.867Z,1018.09
2017-08-20T06:29:21.860Z,1018.10
2017-08-20T06:30:21.854Z,1018.07
2017-08-20T06:31:21.846Z,1018.09
2017-08-20T06:32:21.838Z,1018.07
2017-08-20T06:33:21.834Z,1018.15
2017-08-20T06:34:21.825Z,1018.11
2017-08-20T06:35:21.821Z,1018.10
2017-08-20T06:36:21.810Z,1018.11
2017-08-20T06:37:21.801Z,1018.08
2017-08-20T06:38:21.795Z,1018.07
2017-08-20T06:39:21.788Z,1018.11
2017-08-20T06:40:21.783Z,1018.09
2017-08-20T06:41:21.774Z,1018.19
2017-08-20T06:42:21.767Z,1018.21
2017-08-20T06:43:21.761Z,1018.24
2017-08-20T06:44:21.758Z,1018.32
2017-08-20T06:45:21.753Z,1018.38
2017-08-20T06:46:21.747Z,1018.36
2017-08-20T06:47:21.742Z,1018.40
2017-08-20T06:48:21.730Z,1018.87
2017-08-20T06:49:21.722Z,1018.92
2017-08-20T06:50:21.717Z,1018.97
2017-08-20T06:51:21.711Z,1018.76
2017-08-20T06:52:21.708Z,1018.59
2017-08-20T06:53:21.705Z,1018.54
2017-08-20T06:54:21.698Z,1018.55
2017-08-20T06:55:21.695Z,1018.46
2017-08-20T06:56:21.689Z,1018.46
2017-08-20T06:57:21.686Z,1018.44
2017-08-20T06:58:21.679Z,1018.47
2017-08-20T06:59:21.678Z,1018.47
2017-08-20T07:00:21.669Z,1018.48
2017-08-20T07:01:21.663Z,1018.48
2017-08-20T07:02:21.663Z,1018.44
2017-08-20T07:03:21.656Z,1018.43
2017-08-20T07:04:21.651Z,1018.50
2017-08-20T07:05:21.653Z,1018.49
2017-08-20T07:06:21.644Z,1018.50
2017-08-20T07:07:21.646Z,1018.49
2017-08-20T07:08:21.642Z,1018.46
2017-08-20T07:09:21.639Z,1018.47
2017-08-20T07:10:21.635Z,1018.51
2017-08-20T07:11:21.628Z,1018.49
2017-08-20T07:12:21.626Z,1018.54
2017-08-20T07:13:21.635Z,1018.58
2017-08-20T07:14:21.618Z,1018.60
2017-08-20T07:15:21.613Z,1018.60
2017-08-20T07:16:21.604Z,1018.62
2017-08-20T07:17:21.603Z,1018.63
2017-08-20T07:18:21.597Z,1018.67
2017-08-20T07:19:21.596Z,1018.70
2017-08-20T07:20:21.591Z,1018.70
2017-08-20T07:21:21.587Z,1018.69
2017-08-20T07:22:21.585Z,1018.68
2017-08-20T07:23:21.580Z,1018.69
2017-08-20T07:24:21.579Z,1018.73
2017-08-20T07:25:21.579Z,1018.77
2017-08-20T07:26:21.573Z,1018.76
2017-08-20T07:27:21.572Z,1018.77
2017-08-20T07:28:21.566Z,1018.76
2017-08-20T07:29:21.567Z,1018.78
2017-08-20T07:30:21.561Z,1018.77
2017-08-20T07:31:21.561Z,1018.82
2017-08-20T07:32:21.553Z,1018.89
2017-08-20T07:33:21.549Z,1018.85
2017-08-20T07:34:21.549Z,1018.86
2017-08-20T07:35:21.544Z,1018.86
2017-08-20T07:36:21.542Z,1018.87
2017-08-20T07:37:21.540Z,1018.91
2017-08-20T07:38:21.537Z,1018.92
2017-08-20T07:39:21.537Z,1018.93
2017-08-20T07:40:21.538Z,1018.95
2017-08-20T07:41:21.534Z,1018.98
2017-08-20T07:42:21.534Z,1018.99
2017-08-20T07:43:21.531Z,1019.06
2017-08-20T07:44:21.530Z,1019.06
2017-08-20T07:45:21.527Z,1019.03
2017-08-20T07:46:21.529Z,1019.13
2017-08-20T07:47:21.526Z,1019.10
2017-08-20T07:48:21.519Z,1019.09
2017-08-20T07:49:21.521Z,1019.25
2017-08-20T07:50:21.517Z,1019.27
2017-08-20T07:51:21.519Z,1019.35
2017-08-20T07:52:21.541Z,1019.23
2017-08-20T07:53:21.520Z,1019.35
2017-08-20T07:54:21.522Z,1019.79
2017-08-20T07:55:21.520Z,1019.79
2017-08-20T07:56:21.514Z,1020.00
2017-08-20T07:57:21.520Z,1019.30
2017-08-20T07:58:21.516Z,1019.24
2017-08-20T07:59:21.520Z,1019.36
2017-08-20T08:00:21.518Z,1019.30
2017-08-20T08:01:21.522Z,1019.31
2017-08-20T08:02:21.523Z,1019.38
2017-08-20T08:03:21.528Z,1019.41
2017-08-20T08:04:21.534Z,1019.50
2017-08-20T08:05:21.535Z,1019.43
2017-08-20T08:06:21.539Z,1019.36
2017-08-20T08:07:21.542Z,1019.41
2017-08-20T08:08:21.543Z,1019.38
2017-08-20T08:09:21.548Z,1019.42
2017-08-20T08:10:21.548Z,1019.38
2017-08-20T08:11:21.554Z,1019.37
2017-08-20T08:12:21.552Z,1019.38
2017-08-20T08:13:21.553Z,1019.37
2017-08-20T08:14:21.557Z,1019.35
2017-08-20T08:15:21.560Z,1019.31
2017-08-20T08:16:21.563Z,1019.29
2017-08-20T08:17:21.569Z,1019.26
2017-08-20T08:18:21.569Z,1019.23
2017-08-20T08:19:21.571Z,1019.28
2017-08-20T08:20:21.577Z,1019.25
2017-08-20T08:21:21.580Z,1019.25
2017-08-20T08:22:21.582Z,1019.28
2017-08-20T08:23:21.587Z,1019.25
2017-08-20T08:24:21.587Z,1019.21
2017-08-20T08:25:21.589Z,1019.22
2017-08-20T08:26:21.593Z,1019.24
2017-08-20T08:27:21.599Z,1019.24
2017-08-20T08:28:21.590Z,1019.23
2017-08-20T08:29:21.595Z,1019.28
2017-08-20T08:30:21.596Z,1019.22
2017-08-20T08:31:21.600Z,1019.26
2017-08-20T08:32:21.598Z,1019.32
2017-08-20T08:33:21.603Z,1019.28
2017-08-20T08:34:21.602Z,1019.32
2017-08-20T08:35:21.608Z,1019.39
2017-08-20T08:36:21.613Z,1019.36
2017-08-20T08:37:21.613Z,1019.34
2017-08-20T08:38:21.617Z,1019.34
2017-08-20T08:39:21.618Z,1019.29
2017-08-20T08:40:21.618Z,1019.28
2017-08-20T08:41:21.624Z,1019.28
2017-08-20T08:42:21.622Z,1019.30
2017-08-20T08:43:21.627Z,1019.32
2017-08-20T08:44:21.624Z,1019.34
2017-08-20T08:45:21.625Z,1019.44
2017-08-20T08:46:21.631Z,1019.40
2017-08-20T08:47:21.630Z,1019.45
2017-08-20T08:48:21.634Z,1019.53
2017-08-20T08:49:21.634Z,1019.49
2017-08-20T08:50:21.640Z,1019.83
2017-08-20T08:51:21.641Z,1019.55
2017-08-20T08:52:21.647Z,1019.63
2017-08-20T08:53:21.652Z,1019.82
2017-08-20T08:54:21.653Z,1019.64
2017-08-20T08:55:21.659Z,1019.62
2017-08-20T08:56:21.659Z,1019.66
2017-08-20T08:57:21.669Z,1019.66
2017-08-20T08:58:21.668Z,1019.66
2017-08-20T08:59:21.673Z,1019.70
2017-08-20T09:00:21.673Z,1019.69
2017-08-20T09:01:21.676Z,1019.68
2017-08-20T09:02:21.681Z,1019.66
2017-08-20T09:03:21.685Z,1019.77
2017-08-20T09:04:21.691Z,1019.64
2017-08-20T09:05:21.692Z,1019.70
2017-08-20T09:06:21.700Z,1019.74
2017-08-20T09:07:21.703Z,1019.73
2017-08-20T09:08:21.711Z,1019.77
2017-08-20T09:09:21.720Z,1019.89
2017-08-20T09:10:21.722Z,1020.11
2017-08-20T09:11:21.730Z,1019.97
2017-08-20T09:12:21.736Z,1020.05
2017-08-20T09:13:21.753Z,1020.02
2017-08-20T09:14:21.757Z,1019.97
2017-08-20T09:15:21.993Z,1019.99
2017-08-20T09:16:22.118Z,1019.98
2017-08-20T09:17:21.813Z,1020.13
2017-08-20T09:18:21.803Z,1020.10
2017-08-20T09:19:21.784Z,1020.13
2017-08-20T09:20:21.792Z,1020.02
2017-08-20T09:21:21.803Z,1019.99
2017-08-20T09:22:21.811Z,1020.03
2017-08-20T09:23:21.824Z,1020.11
2017-08-20T09:24:21.839Z,1019.98
2017-08-20T09:25:21.848Z,1020.03
2017-08-20T09:26:21.861Z,1020.05
2017-08-20T09:27:21.873Z,1020.04
2017-08-20T09:28:21.881Z,1020.02
2017-08-20T09:29:21.893Z,1019.97
2017-08-20T09:30:21.903Z,1019.97
2017-08-20T09:31:21.917Z,1019.84
2017-08-20T09:32:21.924Z,1019.95
2017-08-20T09:33:21.934Z,1019.92
2017-08-20T09:34:21.948Z,1020.01
2017-08-20T09:35:21.957Z,1020.03
2017-08-20T09:36:21.969Z,1020.01
2017-08-20T09:37:21.983Z,1020.05
2017-08-20T09:38:21.994Z,1020.12
2017-08-20T09:39:22.005Z,1020.08
2017-08-20T09:40:22.020Z,1020.04
2017-08-20T09:41:22.034Z,1019.99
2017-08-20T09:42:22.044Z,1019.94
2017-08-20T09:43:22.060Z,1020.08
2017-08-20T09:44:22.070Z,1020.01
2017-08-20T09:45:22.081Z,1020.09
2017-08-20T09:46:22.095Z,1019.95
2017-08-20T09:47:22.107Z,1019.96
2017-08-20T09:48:22.111Z,1019.90
2017-08-20T09:49:22.125Z,1019.95
2017-08-20T09:50:22.137Z,1019.83
2017-08-20T09:51:22.150Z,1019.66
2017-08-20T09:52:22.160Z,1019.52
2017-08-20T09:53:22.173Z,1019.58
2017-08-20T09:54:22.184Z,1019.69
2017-08-20T09:55:22.197Z,1019.67
2017-08-20T09:56:22.211Z,1019.94
2017-08-20T09:57:22.221Z,1019.85
2017-08-20T09:58:22.234Z,1019.79
2017-08-20T09:59:22.253Z,1019.70
2017-08-20T10:00:22.250Z,1019.57
2017-08-20T10:01:22.263Z,1019.59
2017-08-20T10:02:22.270Z,1019.59
2017-08-20T10:03:22.285Z,1019.47
2017-08-20T10:04:22.298Z,1019.46
2017-08-20T10:05:22.306Z,1019.51
2017-08-20T10:06:22.318Z,1019.60
2017-08-20T10:07:22.328Z,1019.47
2017-08-20T10:08:22.337Z,1019.57
2017-08-20T10:09:22.344Z,1019.73
2017-08-20T10:10:22.355Z,1019.72
2017-08-20T10:11:22.364Z,1019.75
2017-08-20T10:12:22.370Z,1019.79
2017-08-20T10:13:22.377Z,1019.64
2017-08-20T10:14:22.385Z,1019.83
2017-08-20T10:15:22.396Z,1019.74
2017-08-20T10:16:22.405Z,1019.66
2017-08-20T10:17:22.412Z,1019.65
2017-08-20T10:18:22.423Z,1019.67
2017-08-20T10:19:22.432Z,1019.81
2017-08-20T10:20:22.445Z,1019.69
2017-08-20T10:21:22.457Z,1019.84
2017-08-20T10:22:22.464Z,1019.83
2017-08-20T10:23:22.478Z,1019.75
2017-08-20T10:24:22.483Z,1019.76
2017-08-20T10:25:22.501Z,1019.72
2017-08-20T10:26:22.505Z,1019.69
2017-08-20T10:27:22.517Z,1019.80
2017-08-20T10:28:22.522Z,1019.72
2017-08-20T10:29:22.533Z,1019.50
2017-08-20T10:30:22.546Z,1019.69
2017-08-20T10:31:22.554Z,1019.60
2017-08-20T10:32:22.565Z,1019.59
2017-08-20T10:33:22.579Z,1019.73
2017-08-20T10:34:22.589Z,1019.88
2017-08-20T10:35:22.603Z,1019.67
2017-08-20T10:36:22.619Z,1019.79
2017-08-20T10:37:22.627Z,1019.52
2017-08-20T10:38:22.643Z,1019.48
2017-08-20T10:39:22.653Z,1019.65
2017-08-20T10:40:22.666Z,1019.66
2017-08-20T10:41:22.678Z,1019.55
2017-08-20T10:42:22.691Z,1019.69
2017-08-20T10:43:22.704Z,1019.46
2017-08-20T10:44:22.708Z,1019.46
2017-08-20T10:45:22.722Z,1019.66
2017-08-20T10:46:22.733Z,1019.49
2017-08-20T10:47:22.746Z,1019.66
2017-08-20T10:48:22.757Z,1019.70
2017-08-20T10:49:22.766Z,1019.55
2017-08-20T10:50:22.780Z,1019.82
2017-08-20T10:51:23.090Z,1019.75
2017-08-20T10:52:22.804Z,1019.82
2017-08-20T10:53:22.818Z,1019.84
2017-08-20T10:54:22.828Z,1019.81
2017-08-20T10:55:22.841Z,1019.78
2017-08-20T10:56:22.850Z,1019.61
2017-08-20T10:57:22.864Z,1019.76
2017-08-20T10:58:22.874Z,1019.72
2017-08-20T10:59:22.889Z,1019.82
2017-08-20T11:00:22.895Z,1019.61
2017-08-20T11:01:22.905Z,1019.80
2017-08-20T11:02:22.919Z,1019.71
2017-08-20T11:03:22.930Z,1019.61
2017-08-20T11:04:22.945Z,1019.72
2017-08-20T11:05:22.960Z,1019.71
2017-08-20T11:06:22.972Z,1019.58
2017-08-20T11:07:22.983Z,1019.55
2017-08-20T11:08:22.990Z,1019.61
2017-08-20T11:09:23.001Z,1019.60
2017-08-20T11:10:23.013Z,1019.54
2017-08-20T11:11:23.022Z,1019.62
2017-08-20T11:12:23.033Z,1019.59
2017-08-20T11:13:23.042Z,1019.75
2017-08-20T11:14:23.054Z,1019.77
2017-08-20T11:15:23.062Z,1019.82
2017-08-20T11:16:23.076Z,1019.88
2017-08-20T11:17:23.091Z,1019.92
2017-08-20T11:18:23.094Z,1019.89
2017-08-20T11:19:23.107Z,1019.87
2017-08-20T11:20:23.117Z,1019.87
2017-08-20T11:21:23.125Z,1019.89
2017-08-20T11:22:23.137Z,1019.84
2017-08-20T11:23:23.148Z,1019.81
2017-08-20T11:24:23.152Z,1019.84
2017-08-20T11:25:23.163Z,1019.74
2017-08-20T11:26:23.176Z,1019.75
2017-08-20T11:27:23.188Z,1019.68
2017-08-20T11:28:23.193Z,1019.75
2017-08-20T11:29:23.206Z,1019.72
2017-08-20T11:30:23.216Z,1019.59
2017-08-20T11:31:23.233Z,1019.63
2017-08-20T11:32:23.242Z,1019.65
2017-08-20T11:33:23.250Z,1019.64
2017-08-20T11:34:23.263Z,1019.60
2017-08-20T11:35:23.271Z,1019.60
2017-08-20T11:36:23.278Z,1019.59
2017-08-20T11:37:23.288Z,1019.56
2017-08-20T11:38:23.296Z,1019.57
2017-08-20T11:39:23.306Z,1019.66
2017-08-20T11:40:23.325Z,1019.61
2017-08-20T11:41:23.315Z,1019.62
2017-08-20T11:42:23.323Z,1019.60
2017-08-20T11:43:23.330Z,1019.59
2017-08-20T11:44:23.338Z,1019.63
2017-08-20T11:45:23.343Z,1019.64
2017-08-20T11:46:23.351Z,1019.65
2017-08-20T11:47:23.356Z,1019.61
2017-08-20T11:48:23.365Z,1019.60
2017-08-20T11:49:23.371Z,1019.64
2017-08-20T11:50:23.378Z,1019.61
2017-08-20T11:51:23.385Z,1019.57
2017-08-20T11:52:23.390Z,1019.59
2017-08-20T11:53:23.393Z,1019.54
2017-08-20T11:54:23.401Z,1019.47
2017-08-20T11:55:23.403Z,1019.48
2017-08-20T11:56:23.404Z,1019.43
2017-08-20T11:57:23.411Z,1019.44
2017-08-20T11:58:23.413Z,1019.48
2017-08-20T11:59:23.421Z,1019.49
2017-08-20T12:00:23.421Z,1019.42
2017-08-20T12:01:23.428Z,1019.42
2017-08-20T12:02:23.431Z,1019.50
2017-08-20T12:03:23.441Z,1019.52
2017-08-20T12:04:23.445Z,1019.49
2017-08-20T12:05:23.447Z,1019.43